createdAt,value
2022-09-24T00:00:02.622Z,11.69
2022-09-24T00:04:07.706Z,11.70
2022-09-24T00:08:12.770Z,11.70
2022-09-24T00:12:15.875Z,11.67
2022-09-24T00:16:21.052Z,11.66
2022-09-24T00:20:24.195Z,11.66
2022-09-24T00:24:47.333Z,11.66
2022-09-24T00:28:50.799Z,11.70
2022-09-24T00:32:54.639Z,11.69
2022-09-24T00:36:57.917Z,11.68
2022-09-24T00:41:04.888Z,11.67
2022-09-24T00:45:11.323Z,11.66
2022-09-24T00:49:16.762Z,11.63
2022-09-24T00:53:24.377Z,11.61
2022-09-24T00:57:29.360Z,11.57
2022-09-24T01:01:33.023Z,11.51
2022-09-24T01:05:37.383Z,11.45
2022-09-24T01:09:40.970Z,11.43
2022-09-24T01:14:02.669Z,11.41
2022-09-24T01:18:11.116Z,11.38
2022-09-24T01:22:28.474Z,11.36
2022-09-24T01:26:49.227Z,11.35
2022-09-24T01:31:00.737Z,11.35
2022-09-24T01:35:09.656Z,11.33
2022-09-24T01:39:15.492Z,11.31
2022-09-24T01:43:23.091Z,11.31
2022-09-24T01:47:34.910Z,11.30
2022-09-24T01:51:44.604Z,11.28
2022-09-24T01:55:52.922Z,11.23
2022-09-24T02:00:00.741Z,11.21
2022-09-24T02:04:12.433Z,11.19
2022-09-24T02:08:20.080Z,11.15
2022-09-24T02:12:30.150Z,11.12
2022-09-24T02:16:38.078Z,11.10
2022-09-24T02:20:45.105Z,11.08
2022-09-24T02:24:51.997Z,11.06
2022-09-24T02:28:55.209Z,11.01
2022-09-24T02:32:59.419Z,10.98
2022-09-24T02:37:07.227Z,10.97
2022-09-24T02:41:11.092Z,10.97
2022-09-24T02:45:14.658Z,10.95
2022-09-24T02:49:18.833Z,10.95
2022-09-24T02:53:23.296Z,10.94
2022-09-24T02:57:26.992Z,10.95
2022-09-24T03:01:30.178Z,10.93
2022-09-24T03:05:33.499Z,10.93
2022-09-24T03:09:37.822Z,10.92
2022-09-24T03:13:41.910Z,10.90
2022-09-24T03:17:44.902Z,10.89
2022-09-24T03:21:48.339Z,10.87
2022-09-24T03:25:52.745Z,10.86
2022-09-24T03:30:13.724Z,10.84
2022-09-24T03:34:16.784Z,10.83
2022-09-24T03:42:30.856Z,10.84
2022-09-24T03:46:34.251Z,10.84
2022-09-24T03:50:38.077Z,10.84
2022-09-24T03:54:41.556Z,10.85
2022-09-24T03:58:47.787Z,10.85
2022-09-24T04:02:51.770Z,10.85
2022-09-24T04:06:54.881Z,10.85
2022-09-24T04:10:58.383Z,10.83
2022-09-24T04:15:03.252Z,10.82
2022-09-24T04:19:08.689Z,10.76
2022-09-24T04:23:13.271Z,10.70
2022-09-24T04:27:16.326Z,10.63
2022-09-24T04:31:21.717Z,10.55
2022-09-24T04:35:25.188Z,10.47
2022-09-24T04:39:28.843Z,10.41
2022-09-24T04:43:32.460Z,10.34
2022-09-24T04:47:39.593Z,10.27
2022-09-24T04:51:42.854Z,10.20
2022-09-24T04:55:46.332Z,10.15
2022-09-24T04:59:49.671Z,10.12
2022-09-24T05:03:54.478Z,10.11
2022-09-24T05:07:59.167Z,10.10
2022-09-24T05:12:02.682Z,10.13
2022-09-24T05:16:06.668Z,10.17
2022-09-24T05:20:11.612Z,10.24
2022-09-24T05:24:15.274Z,10.34
2022-09-24T05:28:18.671Z,10.44
2022-09-24T05:32:22.346Z,10.53
2022-09-24T05:36:27.450Z,10.64
2022-09-24T05:40:48.743Z,10.75
2022-09-24T05:44:52.733Z,10.85
2022-09-24T05:48:56.092Z,10.94
2022-09-24T05:53:02.736Z,11.04
2022-09-24T05:57:06.236Z,11.17
2022-09-24T06:01:09.988Z,11.31
2022-09-24T06:05:13.779Z,11.46
2022-09-24T06:09:18.705Z,11.61
2022-09-24T06:13:22.671Z,11.75
2022-09-24T06:17:27.742Z,11.88
2022-09-24T06:21:30.919Z,12.00
2022-09-24T06:25:35.808Z,12.12
2022-09-24T06:29:39.272Z,12.20
2022-09-24T06:33:42.689Z,12.31
2022-09-24T06:37:46.193Z,12.43
2022-09-24T06:41:51.646Z,12.61
2022-09-24T06:45:57.299Z,12.83
2022-09-24T06:50:00.265Z,13.06
2022-09-24T06:54:03.856Z,13.31
2022-09-24T06:58:10.582Z,13.57
2022-09-24T07:02:14.159Z,13.89
2022-09-24T07:06:17.348Z,14.30
2022-09-24T07:10:21.578Z,14.76
2022-09-24T07:14:26.020Z,15.15
2022-09-24T07:18:29.523Z,15.44
2022-09-24T07:22:32.954Z,15.68
2022-09-24T07:26:36.035Z,15.89
2022-09-24T07:30:41.699Z,16.07
2022-09-24T07:34:46.564Z,16.26
2022-09-24T07:38:49.586Z,16.43
2022-09-24T07:42:53.163Z,16.59
2022-09-24T07:46:59.076Z,16.83
2022-09-24T07:51:02.728Z,17.21
2022-09-24T07:55:06.649Z,17.68
2022-09-24T07:59:11.835Z,18.16
2022-09-24T08:03:17.460Z,18.64
2022-09-24T08:07:20.966Z,19.11
2022-09-24T08:11:24.596Z,19.60
2022-09-24T08:15:27.684Z,20.08
2022-09-24T08:19:33.722Z,20.54
2022-09-24T08:23:38.356Z,20.99
2022-09-24T08:27:41.396Z,21.34
2022-09-24T08:31:45.069Z,21.50
2022-09-24T08:35:50.359Z,21.58
2022-09-24T08:39:53.578Z,21.52
2022-09-24T08:44:04.788Z,21.50
2022-09-24T08:48:14.366Z,21.57
2022-09-24T08:52:31.593Z,21.78
2022-09-24T08:56:37.962Z,22.11
2022-09-24T09:00:47.529Z,22.46
2022-09-24T09:05:01.984Z,22.68
2022-09-24T09:09:14.075Z,22.77
2022-09-24T09:13:23.136Z,22.82
2022-09-24T09:17:35.995Z,22.86
2022-09-24T09:21:42.442Z,22.88
2022-09-24T09:25:53.726Z,22.94
2022-09-24T09:30:00.356Z,22.94
2022-09-24T09:34:31.359Z,22.99
2022-09-24T09:42:46.365Z,23.02
2022-09-24T09:46:55.785Z,23.00
2022-09-24T09:51:05.109Z,23.02
2022-09-24T09:55:09.141Z,23.03
2022-09-24T09:59:23.530Z,23.06
2022-09-24T10:03:34.067Z,22.93
2022-09-24T10:07:46.544Z,22.73
2022-09-24T10:11:50.042Z,22.54
2022-09-24T10:15:57.544Z,22.41
2022-09-24T10:20:03.977Z,22.37
2022-09-24T10:24:14.104Z,22.45
2022-09-24T10:28:38.722Z,22.66
2022-09-24T10:32:43.431Z,22.87
2022-09-24T10:36:53.681Z,23.15
2022-09-24T10:40:57.407Z,23.42
2022-09-24T10:45:02.919Z,23.69
2022-09-24T10:49:19.002Z,23.99
2022-09-24T10:53:31.749Z,24.22
2022-09-24T10:57:39.742Z,24.47
2022-09-24T11:01:50.561Z,24.61
2022-09-24T11:06:03.009Z,24.61
2022-09-24T11:10:19.406Z,24.61
2022-09-24T11:14:49.046Z,24.65
2022-09-24T11:18:59.018Z,24.71
2022-09-24T11:23:29.029Z,24.78
2022-09-24T11:27:56.218Z,24.81
2022-09-24T11:32:12.076Z,24.87
2022-09-24T11:36:29.941Z,24.87
2022-09-24T11:40:52.603Z,24.88
2022-09-24T11:45:21.410Z,24.88
2022-09-24T11:49:44.798Z,24.86
2022-09-24T11:53:55.878Z,24.78
2022-09-24T11:58:13.862Z,24.67
2022-09-24T12:02:25.805Z,24.56
2022-09-24T12:06:33.640Z,24.46
2022-09-24T12:10:42.327Z,24.36
2022-09-24T12:14:52.755Z,24.26
2022-09-24T12:19:01.500Z,24.18
2022-09-24T12:23:11.474Z,24.12
2022-09-24T12:27:18.206Z,24.10
2022-09-24T12:31:47.880Z,24.16
2022-09-24T12:36:06.439Z,24.22
2022-09-24T12:40:26.492Z,24.26
2022-09-24T12:44:39.302Z,24.34
2022-09-24T12:48:46.232Z,24.37
2022-09-24T12:52:50.303Z,24.39
2022-09-24T12:56:53.505Z,24.42
2022-09-24T13:01:08.633Z,24.48
2022-09-24T13:05:29.398Z,24.52
2022-09-24T13:09:38.172Z,24.56
2022-09-24T13:13:43.620Z,24.58
2022-09-24T13:17:48.553Z,24.62
2022-09-24T13:21:57.666Z,24.64
2022-09-24T13:26:05.413Z,24.60
2022-09-24T13:30:19.872Z,24.57
2022-09-24T13:34:27.881Z,24.52
2022-09-24T13:38:36.437Z,24.54
2022-09-24T13:42:49.580Z,24.59
2022-09-24T13:46:58.916Z,24.69
2022-09-24T13:51:04.878Z,24.79
2022-09-24T13:55:19.230Z,24.87
2022-09-24T13:59:22.629Z,24.95
2022-09-24T14:03:28.109Z,25.01
2022-09-24T14:07:31.910Z,24.96
2022-09-24T14:11:36.938Z,24.82
2022-09-24T14:15:40.204Z,24.64
2022-09-24T14:19:43.836Z,24.51
2022-09-24T14:23:53.145Z,24.42
2022-09-24T14:28:00.622Z,24.37
2022-09-24T14:32:06.570Z,24.32
2022-09-24T14:36:13.900Z,24.28
2022-09-24T14:40:19.911Z,24.20
2022-09-24T14:44:27.643Z,24.16
2022-09-24T14:48:35.015Z,24.10
2022-09-24T14:52:40.771Z,24.05
2022-09-24T14:56:44.427Z,23.95
2022-09-24T15:00:51.474Z,23.83
2022-09-24T15:05:01.902Z,23.67
2022-09-24T15:09:21.467Z,23.50
2022-09-24T15:13:34.543Z,23.29
2022-09-24T15:17:39.255Z,23.14
2022-09-24T15:21:42.908Z,22.96
2022-09-24T15:25:46.072Z,22.80
2022-09-24T15:29:49.676Z,22.65
2022-09-24T15:33:54.995Z,22.53
2022-09-24T15:38:00.327Z,22.39
2022-09-24T15:47:36.587Z,21.86
2022-09-24T15:51:41.456Z,21.70
2022-09-24T15:55:45.295Z,21.74
2022-09-24T15:59:48.241Z,21.32
2022-09-24T16:03:54.196Z,21.47
2022-09-24T16:07:59.494Z,21.30
2022-09-24T16:12:03.496Z,21.18
2022-09-24T16:16:08.799Z,21.06
2022-09-24T16:20:12.552Z,20.90
2022-09-24T16:24:17.529Z,20.74
2022-09-24T16:28:21.046Z,20.59
2022-09-24T16:32:24.166Z,20.44
2022-09-24T16:36:27.863Z,20.24
2022-09-24T16:40:33.197Z,20.13
2022-09-24T16:44:36.885Z,19.97
2022-09-24T16:48:40.792Z,19.82
2022-09-24T16:52:45.544Z,19.69
2022-09-24T16:56:52.423Z,19.56
2022-09-24T17:00:55.896Z,19.42
2022-09-24T17:05:01.510Z,19.29
2022-09-24T17:09:23.386Z,19.19
2022-09-24T17:13:27.777Z,19.07
2022-09-24T17:17:31.206Z,18.96
2022-09-24T17:21:40.232Z,18.88
2022-09-24T17:25:45.807Z,18.80
2022-09-24T17:30:27.831Z,18.72
2022-09-24T17:34:32.938Z,18.64
2022-09-24T17:38:38.933Z,18.58
2022-09-24T17:42:46.352Z,18.49
2022-09-24T17:46:56.128Z,18.39
2022-09-24T17:51:00.880Z,18.36
2022-09-24T17:55:06.572Z,18.23
2022-09-24T17:59:12.266Z,18.14
2022-09-24T18:03:17.966Z,18.13
2022-09-24T18:07:21.107Z,18.04
2022-09-24T18:11:26.770Z,17.98
2022-09-24T18:15:31.266Z,17.92
2022-09-24T18:19:36.882Z,17.83
2022-09-24T18:23:41.248Z,17.81
2022-09-24T18:27:46.548Z,17.74
2022-09-24T18:31:52.242Z,17.67
2022-09-24T18:35:56.822Z,17.64
2022-09-24T18:40:00.285Z,17.59
2022-09-24T18:44:04.611Z,17.53
2022-09-24T18:48:07.842Z,17.50
2022-09-24T18:52:14.675Z,17.48
2022-09-24T18:56:18.109Z,17.46
2022-09-24T19:00:39.565Z,17.40
2022-09-24T19:04:43.099Z,17.41
2022-09-24T19:08:48.037Z,17.39
2022-09-24T19:12:54.002Z,17.37
2022-09-24T19:16:57.991Z,17.35
2022-09-24T19:21:01.222Z,17.33
2022-09-24T19:25:06.557Z,17.31
2022-09-24T19:29:09.787Z,17.33
2022-09-24T19:33:16.624Z,17.31
2022-09-24T19:37:20.106Z,17.31
2022-09-24T19:41:26.803Z,17.31
2022-09-24T19:45:31.976Z,17.29
2022-09-24T19:49:35.935Z,17.28
2022-09-24T19:53:39.371Z,17.26
2022-09-24T19:57:44.849Z,17.24
2022-09-24T20:01:48.487Z,17.21
2022-09-24T20:05:52.635Z,17.16
2022-09-24T20:09:56.228Z,17.12
2022-09-24T20:14:02.027Z,17.06
2022-09-24T20:18:05.720Z,17.03
2022-09-24T20:22:10.992Z,17.00
2022-09-24T20:26:35.595Z,16.98
2022-09-24T20:30:40.974Z,16.95
2022-09-24T20:34:44.532Z,16.93
2022-09-24T20:38:48.752Z,16.90
2022-09-24T20:42:52.276Z,16.87
2022-09-24T20:46:57.783Z,16.85
2022-09-24T20:51:01.029Z,16.82
2022-09-24T20:55:05.093Z,16.77
2022-09-24T20:59:08.884Z,16.71
2022-09-24T21:03:39.290Z,16.71
2022-09-24T21:07:40.153Z,16.66
2022-09-24T21:11:44.428Z,16.60
2022-09-24T21:16:03.304Z,16.53
2022-09-24T21:20:10.711Z,16.43
2022-09-24T21:24:16.262Z,16.39
2022-09-24T21:28:19.409Z,16.35
2022-09-24T21:32:22.914Z,16.29
2022-09-24T21:36:29.817Z,16.20
2022-09-24T21:40:35.347Z,16.23
2022-09-24T21:44:38.991Z,16.21
2022-09-24T21:48:42.503Z,16.19
2022-09-24T21:52:47.854Z,16.15
2022-09-24T21:56:51.447Z,16.18
2022-09-24T22:00:55.100Z,16.14
2022-09-24T22:04:58.586Z,16.14
2022-09-24T22:09:05.944Z,16.13
2022-09-24T22:13:10.240Z,16.10
2022-09-24T22:17:14.128Z,16.08
2022-09-24T22:21:17.141Z,16.06
2022-09-24T22:25:23.067Z,16.07
2022-09-24T22:29:26.507Z,16.07
2022-09-24T22:33:48.144Z,16.07
2022-09-24T22:37:51.928Z,16.12
2022-09-24T22:41:56.850Z,16.15
2022-09-24T22:46:00.045Z,16.16
2022-09-24T22:50:03.632Z,16.17
2022-09-24T22:54:07.396Z,16.17
2022-09-24T22:58:12.322Z,16.15
2022-09-24T23:02:15.883Z,16.14
2022-09-24T23:06:19.444Z,16.13
2022-09-24T23:10:22.862Z,16.11
2022-09-24T23:14:27.817Z,16.09
2022-09-24T23:18:30.809Z,16.04
2022-09-24T23:22:34.423Z,16.03
2022-09-24T23:26:38.048Z,16.01
2022-09-24T23:30:43.070Z,15.99
2022-09-24T23:34:47.132Z,15.94
2022-09-24T23:38:50.696Z,15.92
2022-09-24T23:42:54.307Z,15.89
2022-09-24T23:46:58.980Z,15.87
2022-09-24T23:51:02.563Z,15.84
2022-09-24T23:55:06.429Z,15.82
2022-09-24T23:59:09.967Z,15.82
